sensor_id;sensor_type;location;lat;lon;timestamp;P1;durP1;ratioP1;P2;durP2;ratioP2
20830;SDS011;10576;53.556;9.868;2022-09-27T00:01:01;3.20;;;2.75;;
20830;SDS011;10576;53.556;9.868;2022-09-27T00:03:29;4.25;;;3.10;;
20830;SDS011;10576;53.556;9.868;2022-09-27T00:08:35;3.13;;;2.90;;
20830;SDS011;10576;53.556;9.868;2022-09-27T00:11:03;3.30;;;3.00;;
20830;SDS011;10576;53.556;9.868;2022-09-27T00:13:30;3.92;;;3.00;;
20830;SDS011;10576;53.556;9.868;2022-09-27T00:15:56;3.22;;;2.72;;
20830;SDS011;10576;53.556;9.868;2022-09-27T00:18:23;2.95;;;2.75;;
20830;SDS011;10576;53.556;9.868;2022-09-27T00:20:49;2.85;;;2.65;;
20830;SDS011;10576;53.556;9.868;2022-09-27T00:23:15;2.70;;;2.50;;
20830;SDS011;10576;53.556;9.868;2022-09-27T00:25:41;3.78;;;2.80;;
20830;SDS011;10576;53.556;9.868;2022-09-27T00:28:07;2.90;;;2.65;;
20830;SDS011;10576;53.556;9.868;2022-09-27T00:30:33;2.97;;;2.78;;
20830;SDS011;10576;53.556;9.868;2022-09-27T00:32:59;2.80;;;2.60;;
20830;SDS011;10576;53.556;9.868;2022-09-27T00:35:24;2.50;;;2.30;;
20830;SDS011;10576;53.556;9.868;2022-09-27T00:37:50;2.60;;;2.40;;
20830;SDS011;10576;53.556;9.868;2022-09-27T00:40:16;2.60;;;2.40;;
20830;SDS011;10576;53.556;9.868;2022-09-27T00:42:42;2.63;;;2.42;;
20830;SDS011;10576;53.556;9.868;2022-09-27T00:45:11;2.67;;;2.47;;
20830;SDS011;10576;53.556;9.868;2022-09-27T00:47:44;2.67;;;2.45;;
20830;SDS011;10576;53.556;9.868;2022-09-27T00:55:40;2.58;;;2.40;;
20830;SDS011;10576;53.556;9.868;2022-09-27T00:58:09;2.25;;;2.08;;
20830;SDS011;10576;53.556;9.868;2022-09-27T01:00:41;2.87;;;2.10;;
20830;SDS011;10576;53.556;9.868;2022-09-27T01:03:10;2.30;;;2.10;;
20830;SDS011;10576;53.556;9.868;2022-09-27T01:05:40;3.20;;;2.20;;
20830;SDS011;10576;53.556;9.868;2022-09-27T01:08:06;2.63;;;2.03;;
20830;SDS011;10576;53.556;9.868;2022-09-27T01:10:35;2.30;;;2.10;;
20830;SDS011;10576;53.556;9.868;2022-09-27T01:13:18;4.97;;;2.10;;
20830;SDS011;10576;53.556;9.868;2022-09-27T01:18:42;4.55;;;2.22;;
20830;SDS011;10576;53.556;9.868;2022-09-27T01:29:35;2.00;;;1.90;;
20830;SDS011;10576;53.556;9.868;2022-09-27T01:32:31;2.33;;;2.10;;
20830;SDS011;10576;53.556;9.868;2022-09-27T01:35:02;6.45;;;2.15;;
20830;SDS011;10576;53.556;9.868;2022-09-27T01:40:27;3.27;;;2.00;;
20830;SDS011;10576;53.556;9.868;2022-09-27T01:43:58;2.30;;;2.00;;
20830;SDS011;10576;53.556;9.868;2022-09-27T01:46:26;3.00;;;2.05;;
20830;SDS011;10576;53.556;9.868;2022-09-27T01:48:58;2.13;;;2.00;;
20830;SDS011;10576;53.556;9.868;2022-09-27T01:51:32;2.37;;;2.20;;
20830;SDS011;10576;53.556;9.868;2022-09-27T01:54:06;2.20;;;2.10;;
20830;SDS011;10576;53.556;9.868;2022-09-27T01:56:37;2.20;;;2.00;;
20830;SDS011;10576;53.556;9.868;2022-09-27T01:59:14;2.08;;;1.95;;
20830;SDS011;10576;53.556;9.868;2022-09-27T02:01:52;2.20;;;2.00;;
20830;SDS011;10576;53.556;9.868;2022-09-27T02:04:22;2.10;;;2.00;;
20830;SDS011;10576;53.556;9.868;2022-09-27T02:06:55;2.58;;;2.38;;
20830;SDS011;10576;53.556;9.868;2022-09-27T02:09:33;2.47;;;2.28;;
20830;SDS011;10576;53.556;9.868;2022-09-27T02:12:04;2.72;;;1.98;;
20830;SDS011;10576;53.556;9.868;2022-09-27T02:14:37;2.40;;;2.20;;
20830;SDS011;10576;53.556;9.868;2022-09-27T02:20:03;3.03;;;2.40;;
20830;SDS011;10576;53.556;9.868;2022-09-27T02:22:43;3.38;;;2.00;;
20830;SDS011;10576;53.556;9.868;2022-09-27T02:25:34;2.10;;;1.95;;
20830;SDS011;10576;53.556;9.868;2022-09-27T02:31:12;2.72;;;1.90;;
20830;SDS011;10576;53.556;9.868;2022-09-27T02:33:39;2.42;;;1.90;;
20830;SDS011;10576;53.556;9.868;2022-09-27T02:36:16;2.47;;;2.00;;
20830;SDS011;10576;53.556;9.868;2022-09-27T02:38:43;2.00;;;1.80;;
20830;SDS011;10576;53.556;9.868;2022-09-27T02:41:13;2.15;;;1.92;;
20830;SDS011;10576;53.556;9.868;2022-09-27T02:43:39;2.00;;;1.83;;
20830;SDS011;10576;53.556;9.868;2022-09-27T02:52:07;2.17;;;1.98;;
20830;SDS011;10576;53.556;9.868;2022-09-27T02:57:20;2.00;;;1.90;;
20830;SDS011;10576;53.556;9.868;2022-09-27T03:05:25;2.22;;;2.03;;
20830;SDS011;10576;53.556;9.868;2022-09-27T03:07:55;2.30;;;1.75;;
20830;SDS011;10576;53.556;9.868;2022-09-27T03:10:22;2.85;;;1.95;;
20830;SDS011;10576;53.556;9.868;2022-09-27T03:12:50;2.10;;;1.85;;
20830;SDS011;10576;53.556;9.868;2022-09-27T03:15:16;1.88;;;1.77;;
20830;SDS011;10576;53.556;9.868;2022-09-27T03:17:42;1.90;;;1.80;;
20830;SDS011;10576;53.556;9.868;2022-09-27T03:20:08;1.80;;;1.70;;
20830;SDS011;10576;53.556;9.868;2022-09-27T03:22:34;1.88;;;1.75;;
20830;SDS011;10576;53.556;9.868;2022-09-27T03:25:00;2.00;;;1.90;;
20830;SDS011;10576;53.556;9.868;2022-09-27T03:27:26;2.00;;;1.90;;
20830;SDS011;10576;53.556;9.868;2022-09-27T03:29:51;2.15;;;2.05;;
20830;SDS011;10576;53.556;9.868;2022-09-27T03:32:17;2.60;;;2.03;;
20830;SDS011;10576;53.556;9.868;2022-09-27T03:34:43;1.98;;;1.88;;
20830;SDS011;10576;53.556;9.868;2022-09-27T03:37:08;3.10;;;2.20;;
20830;SDS011;10576;53.556;9.868;2022-09-27T03:39:34;2.07;;;1.97;;
20830;SDS011;10576;53.556;9.868;2022-09-27T03:42:00;2.27;;;2.10;;
20830;SDS011;10576;53.556;9.868;2022-09-27T03:44:26;2.67;;;2.03;;
20830;SDS011;10576;53.556;9.868;2022-09-27T03:46:51;2.27;;;2.07;;
20830;SDS011;10576;53.556;9.868;2022-09-27T03:49:18;2.20;;;2.10;;
20830;SDS011;10576;53.556;9.868;2022-09-27T03:51:43;2.20;;;2.10;;
20830;SDS011;10576;53.556;9.868;2022-09-27T03:54:09;2.40;;;2.20;;
20830;SDS011;10576;53.556;9.868;2022-09-27T03:56:35;2.43;;;2.30;;
20830;SDS011;10576;53.556;9.868;2022-09-27T03:59:00;2.63;;;2.43;;
20830;SDS011;10576;53.556;9.868;2022-09-27T04:01:26;2.42;;;2.22;;
20830;SDS011;10576;53.556;9.868;2022-09-27T04:03:52;2.70;;;2.50;;
20830;SDS011;10576;53.556;9.868;2022-09-27T04:06:18;2.73;;;2.53;;
20830;SDS011;10576;53.556;9.868;2022-09-27T04:08:44;2.70;;;2.50;;
20830;SDS011;10576;53.556;9.868;2022-09-27T04:11:11;2.60;;;2.40;;
20830;SDS011;10576;53.556;9.868;2022-09-27T04:13:39;2.60;;;2.40;;
20830;SDS011;10576;53.556;9.868;2022-09-27T04:16:05;2.90;;;2.70;;
20830;SDS011;10576;53.556;9.868;2022-09-27T04:18:31;2.90;;;2.70;;
20830;SDS011;10576;53.556;9.868;2022-09-27T04:20:58;3.15;;;2.85;;
20830;SDS011;10576;53.556;9.868;2022-09-27T04:23:23;3.17;;;2.97;;
20830;SDS011;10576;53.556;9.868;2022-09-27T04:25:49;3.13;;;2.92;;
20830;SDS011;10576;53.556;9.868;2022-09-27T04:28:15;3.30;;;3.10;;
20830;SDS011;10576;53.556;9.868;2022-09-27T04:30:41;3.40;;;3.10;;
20830;SDS011;10576;53.556;9.868;2022-09-27T04:33:06;3.47;;;3.10;;
20830;SDS011;10576;53.556;9.868;2022-09-27T04:35:32;3.70;;;3.40;;
20830;SDS011;10576;53.556;9.868;2022-09-27T04:38:16;4.00;;;3.60;;
20830;SDS011;10576;53.556;9.868;2022-09-27T04:40:46;3.70;;;3.50;;
20830;SDS011;10576;53.556;9.868;2022-09-27T04:43:13;4.22;;;3.92;;
20830;SDS011;10576;53.556;9.868;2022-09-27T04:45:38;4.30;;;4.00;;
20830;SDS011;10576;53.556;9.868;2022-09-27T04:48:04;5.63;;;4.37;;
20830;SDS011;10576;53.556;9.868;2022-09-27T04:50:30;4.90;;;4.50;;
20830;SDS011;10576;53.556;9.868;2022-09-27T04:52:56;4.95;;;4.50;;
20830;SDS011;10576;53.556;9.868;2022-09-27T04:55:22;5.10;;;4.70;;
20830;SDS011;10576;53.556;9.868;2022-09-27T04:57:48;5.60;;;5.00;;
20830;SDS011;10576;53.556;9.868;2022-09-27T05:00:14;5.80;;;5.30;;
20830;SDS011;10576;53.556;9.868;2022-09-27T05:02:41;5.50;;;5.00;;
20830;SDS011;10576;53.556;9.868;2022-09-27T05:05:08;6.10;;;5.50;;
20830;SDS011;10576;53.556;9.868;2022-09-27T05:07:34;7.20;;;6.15;;
20830;SDS011;10576;53.556;9.868;2022-09-27T05:10:01;6.65;;;6.05;;
20830;SDS011;10576;53.556;9.868;2022-09-27T05:12:26;7.17;;;6.47;;
20830;SDS011;10576;53.556;9.868;2022-09-27T05:14:52;7.53;;;6.83;;
20830;SDS011;10576;53.556;9.868;2022-09-27T05:17:18;8.45;;;7.65;;
20830;SDS011;10576;53.556;9.868;2022-09-27T05:19:45;8.43;;;7.53;;
20830;SDS011;10576;53.556;9.868;2022-09-27T05:22:11;8.67;;;7.87;;
20830;SDS011;10576;53.556;9.868;2022-09-27T05:24:37;9.00;;;8.10;;
20830;SDS011;10576;53.556;9.868;2022-09-27T05:27:03;9.35;;;8.45;;
20830;SDS011;10576;53.556;9.868;2022-09-27T05:29:32;10.27;;;9.17;;
20830;SDS011;10576;53.556;9.868;2022-09-27T05:31:59;10.48;;;9.38;;
20830;SDS011;10576;53.556;9.868;2022-09-27T05:34:25;10.80;;;9.70;;
20830;SDS011;10576;53.556;9.868;2022-09-27T05:36:51;11.37;;;9.73;;
20830;SDS011;10576;53.556;9.868;2022-09-27T05:39:17;10.88;;;9.75;;
20830;SDS011;10576;53.556;9.868;2022-09-27T05:41:43;11.95;;;10.25;;
20830;SDS011;10576;53.556;9.868;2022-09-27T05:44:09;12.15;;;10.95;;
20830;SDS011;10576;53.556;9.868;2022-09-27T05:46:37;14.38;;;12.88;;
20830;SDS011;10576;53.556;9.868;2022-09-27T05:49:03;14.27;;;12.85;;
20830;SDS011;10576;53.556;9.868;2022-09-27T05:51:29;14.30;;;12.90;;
20830;SDS011;10576;53.556;9.868;2022-09-27T05:53:55;13.47;;;12.07;;
20830;SDS011;10576;53.556;9.868;2022-09-27T05:56:20;14.40;;;11.90;;
20830;SDS011;10576;53.556;9.868;2022-09-27T05:58:46;13.68;;;11.90;;
20830;SDS011;10576;53.556;9.868;2022-09-27T06:01:12;14.65;;;12.07;;
20830;SDS011;10576;53.556;9.868;2022-09-27T06:03:38;13.85;;;11.98;;
20830;SDS011;10576;53.556;9.868;2022-09-27T06:06:05;14.98;;;12.27;;
20830;SDS011;10576;53.556;9.868;2022-09-27T06:08:31;16.52;;;12.10;;
20830;SDS011;10576;53.556;9.868;2022-09-27T06:11:02;14.27;;;11.77;;
20830;SDS011;10576;53.556;9.868;2022-09-27T06:13:30;14.88;;;11.95;;
20830;SDS011;10576;53.556;9.868;2022-09-27T06:15:57;13.30;;;10.70;;
20830;SDS011;10576;53.556;9.868;2022-09-27T06:18:23;13.05;;;10.02;;
20830;SDS011;10576;53.556;9.868;2022-09-27T06:20:49;13.23;;;9.60;;
20830;SDS011;10576;53.556;9.868;2022-09-27T06:23:16;11.25;;;8.85;;
20830;SDS011;10576;53.556;9.868;2022-09-27T06:25:43;11.00;;;7.57;;
20830;SDS011;10576;53.556;9.868;2022-09-27T06:28:09;10.80;;;6.78;;
20830;SDS011;10576;53.556;9.868;2022-09-27T06:30:39;8.65;;;7.03;;
20830;SDS011;10576;53.556;9.868;2022-09-27T06:33:06;8.57;;;6.00;;
20830;SDS011;10576;53.556;9.868;2022-09-27T06:35:33;6.65;;;5.63;;
20830;SDS011;10576;53.556;9.868;2022-09-27T06:38:06;6.05;;;5.10;;
20830;SDS011;10576;53.556;9.868;2022-09-27T06:40:34;4.90;;;4.50;;
20830;SDS011;10576;53.556;9.868;2022-09-27T06:43:04;4.85;;;4.35;;
20830;SDS011;10576;53.556;9.868;2022-09-27T06:45:33;4.43;;;3.92;;
20830;SDS011;10576;53.556;9.868;2022-09-27T06:48:00;4.00;;;3.50;;
20830;SDS011;10576;53.556;9.868;2022-09-27T06:50:29;4.70;;;2.95;;
20830;SDS011;10576;53.556;9.868;2022-09-27T06:52:57;3.53;;;2.80;;
20830;SDS011;10576;53.556;9.868;2022-09-27T06:55:22;2.70;;;2.50;;
20830;SDS011;10576;53.556;9.868;2022-09-27T06:57:50;3.00;;;2.50;;
20830;SDS011;10576;53.556;9.868;2022-09-27T07:00:37;2.70;;;2.50;;
20830;SDS011;10576;53.556;9.868;2022-09-27T07:03:03;2.20;;;2.10;;
20830;SDS011;10576;53.556;9.868;2022-09-27T07:05:29;2.60;;;2.20;;
20830;SDS011;10576;53.556;9.868;2022-09-27T07:07:55;2.20;;;2.00;;
20830;SDS011;10576;53.556;9.868;2022-09-27T07:10:25;2.42;;;1.70;;
20830;SDS011;10576;53.556;9.868;2022-09-27T07:12:53;2.28;;;1.77;;
20830;SDS011;10576;53.556;9.868;2022-09-27T07:15:20;1.70;;;1.60;;
20830;SDS011;10576;53.556;9.868;2022-09-27T07:17:46;1.60;;;1.50;;
20830;SDS011;10576;53.556;9.868;2022-09-27T07:20:19;2.58;;;1.27;;
20830;SDS011;10576;53.556;9.868;2022-09-27T07:22:45;1.40;;;1.17;;
20830;SDS011;10576;53.556;9.868;2022-09-27T07:25:11;2.65;;;1.40;;
20830;SDS011;10576;53.556;9.868;2022-09-27T07:27:37;2.45;;;1.40;;
20830;SDS011;10576;53.556;9.868;2022-09-27T07:32:36;1.77;;;1.40;;
20830;SDS011;10576;53.556;9.868;2022-09-27T07:35:02;2.58;;;1.40;;
20830;SDS011;10576;53.556;9.868;2022-09-27T07:37:30;1.40;;;1.30;;
20830;SDS011;10576;53.556;9.868;2022-09-27T07:39:57;1.50;;;1.40;;
20830;SDS011;10576;53.556;9.868;2022-09-27T07:42:24;2.47;;;1.60;;
20830;SDS011;10576;53.556;9.868;2022-09-27T07:44:50;2.65;;;1.50;;
20830;SDS011;10576;53.556;9.868;2022-09-27T07:47:15;2.05;;;1.40;;
20830;SDS011;10576;53.556;9.868;2022-09-27T07:49:43;2.05;;;1.52;;
20830;SDS011;10576;53.556;9.868;2022-09-27T07:52:09;2.17;;;1.60;;
20830;SDS011;10576;53.556;9.868;2022-09-27T07:54:34;2.40;;;1.93;;
20830;SDS011;10576;53.556;9.868;2022-09-27T07:57:01;2.15;;;1.70;;
20830;SDS011;10576;53.556;9.868;2022-09-27T07:59:27;2.23;;;1.90;;
20830;SDS011;10576;53.556;9.868;2022-09-27T08:01:53;2.80;;;1.90;;
20830;SDS011;10576;53.556;9.868;2022-09-27T08:04:20;2.40;;;2.13;;
20830;SDS011;10576;53.556;9.868;2022-09-27T08:06:46;5.80;;;2.30;;
20830;SDS011;10576;53.556;9.868;2022-09-27T08:09:11;2.33;;;2.10;;
20830;SDS011;10576;53.556;9.868;2022-09-27T08:11:37;2.28;;;2.08;;
20830;SDS011;10576;53.556;9.868;2022-09-27T08:14:03;2.00;;;1.90;;
20830;SDS011;10576;53.556;9.868;2022-09-27T08:16:29;2.22;;;2.03;;
20830;SDS011;10576;53.556;9.868;2022-09-27T08:18:57;2.85;;;1.90;;
20830;SDS011;10576;53.556;9.868;2022-09-27T08:21:23;2.42;;;1.80;;
20830;SDS011;10576;53.556;9.868;2022-09-27T08:23:48;2.47;;;2.10;;
20830;SDS011;10576;53.556;9.868;2022-09-27T08:26:14;2.50;;;1.80;;
20830;SDS011;10576;53.556;9.868;2022-09-27T08:28:40;3.90;;;2.17;;
20830;SDS011;10576;53.556;9.868;2022-09-27T08:31:05;5.10;;;3.05;;
20830;SDS011;10576;53.556;9.868;2022-09-27T08:33:31;5.03;;;3.35;;
20830;SDS011;10576;53.556;9.868;2022-09-27T08:35:57;3.25;;;2.00;;
20830;SDS011;10576;53.556;9.868;2022-09-27T08:38:22;2.40;;;1.70;;
20830;SDS011;10576;53.556;9.868;2022-09-27T08:46:09;3.03;;;1.80;;
20830;SDS011;10576;53.556;9.868;2022-09-27T08:48:58;4.57;;;2.30;;
20830;SDS011;10576;53.556;9.868;2022-09-27T08:51:49;3.83;;;2.30;;
20830;SDS011;10576;53.556;9.868;2022-09-27T08:54:21;2.80;;;2.00;;
20830;SDS011;10576;53.556;9.868;2022-09-27T08:56:51;2.50;;;1.80;;
20830;SDS011;10576;53.556;9.868;2022-09-27T08:59:19;4.60;;;3.47;;
20830;SDS011;10576;53.556;9.868;2022-09-27T09:01:50;2.30;;;2.10;;
20830;SDS011;10576;53.556;9.868;2022-09-27T09:13:20;1.70;;;1.50;;
20830;SDS011;10576;53.556;9.868;2022-09-27T09:21:29;2.40;;;1.60;;
20830;SDS011;10576;53.556;9.868;2022-09-27T09:35:49;8.85;;;3.92;;
20830;SDS011;10576;53.556;9.868;2022-09-27T09:38:23;3.70;;;2.38;;
20830;SDS011;10576;53.556;9.868;2022-09-27T09:41:06;1.60;;;1.50;;
20830;SDS011;10576;53.556;9.868;2022-09-27T09:43:44;2.55;;;1.67;;
20830;SDS011;10576;53.556;9.868;2022-09-27T09:46:21;1.50;;;1.40;;
20830;SDS011;10576;53.556;9.868;2022-09-27T09:51:39;1.30;;;1.20;;
20830;SDS011;10576;53.556;9.868;2022-09-27T09:59:55;1.35;;;1.23;;
20830;SDS011;10576;53.556;9.868;2022-09-27T10:02:39;1.30;;;1.20;;
20830;SDS011;10576;53.556;9.868;2022-09-27T10:05:09;1.40;;;1.30;;
20830;SDS011;10576;53.556;9.868;2022-09-27T10:07:39;1.40;;;1.10;;
20830;SDS011;10576;53.556;9.868;2022-09-27T10:10:05;1.42;;;1.08;;
20830;SDS011;10576;53.556;9.868;2022-09-27T10:12:32;1.30;;;1.10;;
20830;SDS011;10576;53.556;9.868;2022-09-27T10:15:02;1.00;;;1.00;;
20830;SDS011;10576;53.556;9.868;2022-09-27T10:17:36;1.00;;;1.00;;
20830;SDS011;10576;53.556;9.868;2022-09-27T10:20:05;2.00;;;1.13;;
20830;SDS011;10576;53.556;9.868;2022-09-27T10:22:35;1.10;;;1.10;;
20830;SDS011;10576;53.556;9.868;2022-09-27T10:25:04;1.23;;;1.00;;
20830;SDS011;10576;53.556;9.868;2022-09-27T10:27:42;1.60;;;1.10;;
20830;SDS011;10576;53.556;9.868;2022-09-27T10:30:26;1.00;;;1.00;;
20830;SDS011;10576;53.556;9.868;2022-09-27T10:32:56;1.87;;;1.10;;
20830;SDS011;10576;53.556;9.868;2022-09-27T10:37:53;1.40;;;1.30;;
20830;SDS011;10576;53.556;9.868;2022-09-27T10:40:34;1.30;;;1.20;;
20830;SDS011;10576;53.556;9.868;2022-09-27T10:43:00;1.95;;;1.38;;
20830;SDS011;10576;53.556;9.868;2022-09-27T10:45:27;1.95;;;1.30;;
20830;SDS011;10576;53.556;9.868;2022-09-27T10:48:00;1.10;;;1.10;;
20830;SDS011;10576;53.556;9.868;2022-09-27T10:50:28;1.92;;;1.30;;
20830;SDS011;10576;53.556;9.868;2022-09-27T10:53:14;2.90;;;1.33;;
20830;SDS011;10576;53.556;9.868;2022-09-27T10:55:45;1.20;;;1.10;;
20830;SDS011;10576;53.556;9.868;2022-09-27T10:58:24;2.20;;;1.20;;
20830;SDS011;10576;53.556;9.868;2022-09-27T11:00:59;1.25;;;1.15;;
20830;SDS011;10576;53.556;9.868;2022-09-27T11:03:36;1.20;;;1.20;;
20830;SDS011;10576;53.556;9.868;2022-09-27T11:08:48;1.80;;;1.20;;
20830;SDS011;10576;53.556;9.868;2022-09-27T11:11:25;1.40;;;1.20;;
20830;SDS011;10576;53.556;9.868;2022-09-27T11:13:59;3.25;;;1.60;;
20830;SDS011;10576;53.556;9.868;2022-09-27T11:30:29;1.30;;;1.20;;
20830;SDS011;10576;53.556;9.868;2022-09-27T11:33:27;1.77;;;1.20;;
20830;SDS011;10576;53.556;9.868;2022-09-27T11:39:21;1.33;;;1.23;;
20830;SDS011;10576;53.556;9.868;2022-09-27T12:00:51;1.27;;;1.10;;
20830;SDS011;10576;53.556;9.868;2022-09-27T12:03:25;1.42;;;1.17;;
20830;SDS011;10576;53.556;9.868;2022-09-27T12:10:48;1.20;;;1.10;;
20830;SDS011;10576;53.556;9.868;2022-09-27T12:13:21;1.17;;;1.00;;
20830;SDS011;10576;53.556;9.868;2022-09-27T12:15:55;1.33;;;1.10;;
20830;SDS011;10576;53.556;9.868;2022-09-27T12:21:03;1.80;;;1.00;;
20830;SDS011;10576;53.556;9.868;2022-09-27T12:23:42;1.77;;;0.90;;
20830;SDS011;10576;53.556;9.868;2022-09-27T12:26:19;1.35;;;1.08;;
20830;SDS011;10576;53.556;9.868;2022-09-27T12:32:01;1.90;;;1.10;;
20830;SDS011;10576;53.556;9.868;2022-09-27T12:35:01;1.40;;;1.05;;
20830;SDS011;10576;53.556;9.868;2022-09-27T12:37:32;1.73;;;1.42;;
20830;SDS011;10576;53.556;9.868;2022-09-27T12:42:59;1.73;;;1.17;;
20830;SDS011;10576;53.556;9.868;2022-09-27T12:45:50;2.30;;;1.10;;
20830;SDS011;10576;53.556;9.868;2022-09-27T12:50:54;1.33;;;0.77;;
20830;SDS011;10576;53.556;9.868;2022-09-27T12:53:45;1.70;;;0.80;;
20830;SDS011;10576;53.556;9.868;2022-09-27T13:04:23;6.32;;;3.35;;
20830;SDS011;10576;53.556;9.868;2022-09-27T13:12:20;1.25;;;0.90;;
20830;SDS011;10576;53.556;9.868;2022-09-27T13:22:55;1.52;;;0.75;;
20830;SDS011;10576;53.556;9.868;2022-09-27T13:44:06;1.17;;;1.05;;
20830;SDS011;10576;53.556;9.868;2022-09-27T13:46:34;2.30;;;0.90;;
20830;SDS011;10576;53.556;9.868;2022-09-27T13:51:58;1.40;;;0.90;;
20830;SDS011;10576;53.556;9.868;2022-09-27T13:54:37;2.50;;;1.00;;
20830;SDS011;10576;53.556;9.868;2022-09-27T14:00:04;1.50;;;1.00;;
20830;SDS011;10576;53.556;9.868;2022-09-27T14:02:44;1.17;;;0.90;;
20830;SDS011;10576;53.556;9.868;2022-09-27T14:05:34;1.25;;;0.90;;
20830;SDS011;10576;53.556;9.868;2022-09-27T14:08:05;0.90;;;0.80;;
20830;SDS011;10576;53.556;9.868;2022-09-27T14:10:44;1.30;;;0.80;;
20830;SDS011;10576;53.556;9.868;2022-09-27T14:13:10;1.03;;;1.00;;
20830;SDS011;10576;53.556;9.868;2022-09-27T14:15:44;1.40;;;1.00;;
20830;SDS011;10576;53.556;9.868;2022-09-27T14:18:11;1.55;;;1.10;;
20830;SDS011;10576;53.556;9.868;2022-09-27T14:20:42;2.28;;;1.10;;
20830;SDS011;10576;53.556;9.868;2022-09-27T14:23:15;1.40;;;0.90;;
20830;SDS011;10576;53.556;9.868;2022-09-27T14:25:49;1.45;;;1.20;;
20830;SDS011;10576;53.556;9.868;2022-09-27T14:30:47;1.70;;;1.40;;
20830;SDS011;10576;53.556;9.868;2022-09-27T14:33:26;2.77;;;1.30;;
20830;SDS011;10576;53.556;9.868;2022-09-27T14:35:56;2.75;;;1.30;;
20830;SDS011;10576;53.556;9.868;2022-09-27T14:38:40;2.22;;;1.40;;
20830;SDS011;10576;53.556;9.868;2022-09-27T14:41:07;2.00;;;1.40;;
20830;SDS011;10576;53.556;9.868;2022-09-27T14:43:34;2.97;;;1.40;;
20830;SDS011;10576;53.556;9.868;2022-09-27T14:46:05;2.22;;;1.70;;
20830;SDS011;10576;53.556;9.868;2022-09-27T14:48:35;2.25;;;1.42;;
20830;SDS011;10576;53.556;9.868;2022-09-27T14:53:47;1.48;;;1.30;;
20830;SDS011;10576;53.556;9.868;2022-09-27T14:56:15;1.80;;;1.10;;
20830;SDS011;10576;53.556;9.868;2022-09-27T14:58:44;2.10;;;1.10;;
20830;SDS011;10576;53.556;9.868;2022-09-27T15:01:14;1.70;;;1.17;;
20830;SDS011;10576;53.556;9.868;2022-09-27T15:03:41;1.60;;;1.00;;
20830;SDS011;10576;53.556;9.868;2022-09-27T15:06:09;1.95;;;1.20;;
20830;SDS011;10576;53.556;9.868;2022-09-27T15:08:34;2.27;;;1.10;;
20830;SDS011;10576;53.556;9.868;2022-09-27T15:11:04;1.48;;;1.00;;
20830;SDS011;10576;53.556;9.868;2022-09-27T15:13:32;1.85;;;1.10;;
20830;SDS011;10576;53.556;9.868;2022-09-27T15:16:04;1.65;;;1.00;;
20830;SDS011;10576;53.556;9.868;2022-09-27T15:18:41;2.50;;;1.30;;
20830;SDS011;10576;53.556;9.868;2022-09-27T15:21:10;1.90;;;1.10;;
20830;SDS011;10576;53.556;9.868;2022-09-27T15:23:38;1.88;;;1.08;;
20830;SDS011;10576;53.556;9.868;2022-09-27T15:26:22;2.40;;;1.30;;
20830;SDS011;10576;53.556;9.868;2022-09-27T15:28:58;3.03;;;1.10;;
20830;SDS011;10576;53.556;9.868;2022-09-27T15:31:30;2.60;;;1.30;;
20830;SDS011;10576;53.556;9.868;2022-09-27T15:34:00;1.45;;;1.15;;
20830;SDS011;10576;53.556;9.868;2022-09-27T15:39:17;2.33;;;1.07;;
20830;SDS011;10576;53.556;9.868;2022-09-27T15:42:05;2.08;;;1.05;;
20830;SDS011;10576;53.556;9.868;2022-09-27T15:55:11;2.17;;;0.90;;
20830;SDS011;10576;53.556;9.868;2022-09-27T15:57:40;1.65;;;1.20;;
20830;SDS011;10576;53.556;9.868;2022-09-27T16:00:10;2.53;;;1.00;;
20830;SDS011;10576;53.556;9.868;2022-09-27T16:02:40;3.08;;;0.95;;
20830;SDS011;10576;53.556;9.868;2022-09-27T16:05:06;1.40;;;1.00;;
20830;SDS011;10576;53.556;9.868;2022-09-27T16:07:32;3.70;;;1.10;;
20830;SDS011;10576;53.556;9.868;2022-09-27T16:09:58;2.60;;;1.30;;
20830;SDS011;10576;53.556;9.868;2022-09-27T16:12:24;1.35;;;1.00;;
20830;SDS011;10576;53.556;9.868;2022-09-27T16:14:53;2.45;;;1.23;;
20830;SDS011;10576;53.556;9.868;2022-09-27T16:17:19;1.67;;;1.00;;
20830;SDS011;10576;53.556;9.868;2022-09-27T16:19:45;2.43;;;1.10;;
20830;SDS011;10576;53.556;9.868;2022-09-27T16:22:11;3.00;;;0.80;;
20830;SDS011;10576;53.556;9.868;2022-09-27T16:24:37;3.00;;;0.98;;
20830;SDS011;10576;53.556;9.868;2022-09-27T16:27:03;2.83;;;0.90;;
20830;SDS011;10576;53.556;9.868;2022-09-27T16:29:28;3.25;;;1.00;;
20830;SDS011;10576;53.556;9.868;2022-09-27T16:31:54;2.00;;;0.90;;
20830;SDS011;10576;53.556;9.868;2022-09-27T16:34:20;1.00;;;0.90;;
20830;SDS011;10576;53.556;9.868;2022-09-27T16:36:45;1.10;;;0.77;;
20830;SDS011;10576;53.556;9.868;2022-09-27T16:39:13;1.90;;;0.88;;
20830;SDS011;10576;53.556;9.868;2022-09-27T16:41:39;2.60;;;1.37;;
20830;SDS011;10576;53.556;9.868;2022-09-27T16:44:14;1.30;;;1.20;;
20830;SDS011;10576;53.556;9.868;2022-09-27T16:46:41;1.35;;;0.75;;
20830;SDS011;10576;53.556;9.868;2022-09-27T16:49:11;2.72;;;1.05;;
20830;SDS011;10576;53.556;9.868;2022-09-27T16:51:55;1.80;;;1.00;;
20830;SDS011;10576;53.556;9.868;2022-09-27T16:54:25;1.30;;;0.90;;
20830;SDS011;10576;53.556;9.868;2022-09-27T16:56:53;1.15;;;0.90;;
20830;SDS011;10576;53.556;9.868;2022-09-27T16:59:19;1.02;;;0.73;;
20830;SDS011;10576;53.556;9.868;2022-09-27T17:01:45;1.42;;;0.90;;
20830;SDS011;10576;53.556;9.868;2022-09-27T17:04:11;2.22;;;2.03;;
20830;SDS011;10576;53.556;9.868;2022-09-27T17:06:38;2.92;;;2.72;;
20830;SDS011;10576;53.556;9.868;2022-09-27T17:09:04;2.50;;;1.85;;
20830;SDS011;10576;53.556;9.868;2022-09-27T17:11:30;2.67;;;0.90;;
20830;SDS011;10576;53.556;9.868;2022-09-27T17:13:56;1.27;;;0.85;;
20830;SDS011;10576;53.556;9.868;2022-09-27T17:16:22;1.60;;;0.88;;
20830;SDS011;10576;53.556;9.868;2022-09-27T17:18:48;2.20;;;0.90;;
20830;SDS011;10576;53.556;9.868;2022-09-27T17:21:14;0.90;;;0.90;;
20830;SDS011;10576;53.556;9.868;2022-09-27T17:23:40;2.22;;;1.10;;
20830;SDS011;10576;53.556;9.868;2022-09-27T17:28:34;0.85;;;0.85;;
20830;SDS011;10576;53.556;9.868;2022-09-27T17:31:04;1.55;;;1.00;;
20830;SDS011;10576;53.556;9.868;2022-09-27T17:33:33;1.98;;;0.90;;
20830;SDS011;10576;53.556;9.868;2022-09-27T17:36:05;1.30;;;0.68;;
20830;SDS011;10576;53.556;9.868;2022-09-27T17:38:32;1.50;;;0.88;;
20830;SDS011;10576;53.556;9.868;2022-09-27T17:40:59;1.20;;;0.73;;
20830;SDS011;10576;53.556;9.868;2022-09-27T17:43:26;0.90;;;0.77;;
20830;SDS011;10576;53.556;9.868;2022-09-27T17:45:52;2.13;;;0.90;;
20830;SDS011;10576;53.556;9.868;2022-09-27T17:48:18;0.70;;;0.70;;
20830;SDS011;10576;53.556;9.868;2022-09-27T17:51:02;0.90;;;0.80;;
20830;SDS011;10576;53.556;9.868;2022-09-27T17:53:28;0.90;;;0.90;;
20830;SDS011;10576;53.556;9.868;2022-09-27T17:55:59;1.17;;;1.08;;
20830;SDS011;10576;53.556;9.868;2022-09-27T17:58:25;1.45;;;1.02;;
20830;SDS011;10576;53.556;9.868;2022-09-27T18:00:51;2.60;;;1.20;;
20830;SDS011;10576;53.556;9.868;2022-09-27T18:03:16;1.30;;;1.20;;
20830;SDS011;10576;53.556;9.868;2022-09-27T18:05:42;5.33;;;1.20;;
20830;SDS011;10576;53.556;9.868;2022-09-27T18:08:07;1.47;;;1.30;;
20830;SDS011;10576;53.556;9.868;2022-09-27T18:10:33;1.50;;;1.23;;
20830;SDS011;10576;53.556;9.868;2022-09-27T18:12:59;1.40;;;1.30;;
20830;SDS011;10576;53.556;9.868;2022-09-27T18:15:25;1.93;;;1.70;;
20830;SDS011;10576;53.556;9.868;2022-09-27T18:17:50;1.97;;;1.40;;
20830;SDS011;10576;53.556;9.868;2022-09-27T18:20:16;1.90;;;1.70;;
20830;SDS011;10576;53.556;9.868;2022-09-27T18:22:42;2.22;;;1.80;;
20830;SDS011;10576;53.556;9.868;2022-09-27T18:25:07;1.95;;;1.60;;
20830;SDS011;10576;53.556;9.868;2022-09-27T18:27:35;1.83;;;1.73;;
20830;SDS011;10576;53.556;9.868;2022-09-27T18:30:02;2.30;;;2.10;;